sensor_id;sensor_type;location;lat;lon;timestamp;pressure;altitude;pressure_sealevel;temperature;humidity
59873;BME280;50750;51.636;4.948;2023-01-27T00:00:06;102658.89;;;8.30;61.97
59873;BME280;50750;51.636;4.948;2023-01-27T00:02:55;102659.77;;;8.29;62.01
59873;BME280;50750;51.636;4.948;2023-01-27T00:05:21;102658.17;;;8.29;61.97
59873;BME280;50750;51.636;4.948;2023-01-27T00:07:48;102656.27;;;8.29;62.03
59873;BME280;50750;51.636;4.948;2023-01-27T00:10:17;102655.73;;;8.29;62.00
59873;BME280;50750;51.636;4.948;2023-01-27T00:12:44;102653.11;;;8.28;62.14
59873;BME280;50750;51.636;4.948;2023-01-27T00:15:30;102653.64;;;8.28;62.06
59873;BME280;50750;51.636;4.948;2023-01-27T00:17:57;102654.52;;;8.28;61.89
59873;BME280;50750;51.636;4.948;2023-01-27T00:20:23;102656.60;;;8.28;62.01
59873;BME280;50750;51.636;4.948;2023-01-27T00:23:18;102657.64;;;8.27;62.07
59873;BME280;50750;51.636;4.948;2023-01-27T00:26:05;102652.57;;;8.26;62.04
59873;BME280;50750;51.636;4.948;2023-01-27T00:28:35;102651.88;;;8.26;62.08
59873;BME280;50750;51.636;4.948;2023-01-27T00:31:02;102652.92;;;8.26;62.20
59873;BME280;50750;51.636;4.948;2023-01-27T00:33:28;102654.67;;;8.26;62.11
59873;BME280;50750;51.636;4.948;2023-01-27T00:35:59;102655.36;;;8.26;62.15
59873;BME280;50750;51.636;4.948;2023-01-27T00:38:27;102652.57;;;8.26;62.17
59873;BME280;50750;51.636;4.948;2023-01-27T00:40:54;102650.48;;;8.26;62.19
59873;BME280;50750;51.636;4.948;2023-01-27T00:43:39;102657.30;;;8.28;61.96
59873;BME280;50750;51.636;4.948;2023-01-27T00:46:05;102655.91;;;8.28;62.10
59873;BME280;50750;51.636;4.948;2023-01-27T00:48:31;102656.96;;;8.30;61.95
59873;BME280;50750;51.636;4.948;2023-01-27T00:50:57;102658.02;;;8.31;62.01
59873;BME280;50750;51.636;4.948;2023-01-27T00:53:23;102657.33;;;8.32;62.00
59873;BME280;50750;51.636;4.948;2023-01-27T00:55:49;102659.26;;;8.32;61.84
59873;BME280;50750;51.636;4.948;2023-01-27T00:58:15;102660.48;;;8.33;61.84
59873;BME280;50750;51.636;4.948;2023-01-27T01:00:41;102662.23;;;8.33;62.03
59873;BME280;50750;51.636;4.948;2023-01-27T01:03:07;102660.66;;;8.34;61.97
59873;BME280;50750;51.636;4.948;2023-01-27T01:05:33;102660.48;;;8.34;61.92
59873;BME280;50750;51.636;4.948;2023-01-27T01:07:59;102664.67;;;8.34;61.88
59873;BME280;50750;51.636;4.948;2023-01-27T01:10:25;102667.65;;;8.35;61.78
59873;BME280;50750;51.636;4.948;2023-01-27T01:12:50;102669.73;;;8.34;61.83
59873;BME280;50750;51.636;4.948;2023-01-27T01:15:16;102667.11;;;8.34;62.01
59873;BME280;50750;51.636;4.948;2023-01-27T01:17:42;102664.15;;;8.34;62.04
59873;BME280;50750;51.636;4.948;2023-01-27T01:20:08;102670.44;;;8.34;62.01
59873;BME280;50750;51.636;4.948;2023-01-27T01:22:34;102670.61;;;8.34;61.88
59873;BME280;50750;51.636;4.948;2023-01-27T01:25:00;102674.27;;;8.33;62.13
59873;BME280;50750;51.636;4.948;2023-01-27T01:27:26;102679.67;;;8.33;62.02
59873;BME280;50750;51.636;4.948;2023-01-27T01:29:52;102677.92;;;8.32;61.90
59873;BME280;50750;51.636;4.948;2023-01-27T01:32:18;102671.46;;;8.32;62.00
59873;BME280;50750;51.636;4.948;2023-01-27T01:34:44;102672.87;;;8.32;61.94
59873;BME280;50750;51.636;4.948;2023-01-27T01:37:10;102670.59;;;8.31;62.06
59873;BME280;50750;51.636;4.948;2023-01-27T01:39:36;102671.11;;;8.31;62.04
59873;BME280;50750;51.636;4.948;2023-01-27T01:42:02;102673.39;;;8.31;61.86
59873;BME280;50750;51.636;4.948;2023-01-27T01:44:30;102674.60;;;8.30;61.95
59873;BME280;50750;51.636;4.948;2023-01-27T01:46:57;102670.23;;;8.30;61.98
59873;BME280;50750;51.636;4.948;2023-01-27T01:49:30;102668.65;;;8.30;61.96
59873;BME280;50750;51.636;4.948;2023-01-27T01:52:06;102668.48;;;8.29;62.13
59873;BME280;50750;51.636;4.948;2023-01-27T01:54:37;102667.25;;;8.29;62.03
59873;BME280;50750;51.636;4.948;2023-01-27T01:57:18;102668.30;;;8.28;62.08
59873;BME280;50750;51.636;4.948;2023-01-27T02:02:16;102673.03;;;8.30;62.01
59873;BME280;50750;51.636;4.948;2023-01-27T02:04:46;102670.77;;;8.31;62.06
59873;BME280;50750;51.636;4.948;2023-01-27T02:07:27;102670.23;;;8.32;62.17
59873;BME280;50750;51.636;4.948;2023-01-27T02:09:55;102675.15;;;8.33;62.05
59873;BME280;50750;51.636;4.948;2023-01-27T02:12:21;102677.25;;;8.33;62.09
59873;BME280;50750;51.636;4.948;2023-01-27T02:14:47;102676.20;;;8.34;62.02
59873;BME280;50750;51.636;4.948;2023-01-27T02:17:14;102676.20;;;8.35;62.13
59873;BME280;50750;51.636;4.948;2023-01-27T02:19:53;102677.26;;;8.35;61.88
59873;BME280;50750;51.636;4.948;2023-01-27T02:22:38;102686.69;;;8.35;61.90
59873;BME280;50750;51.636;4.948;2023-01-27T02:27:43;102689.47;;;8.35;62.00
59873;BME280;50750;51.636;4.948;2023-01-27T02:30:10;102697.17;;;8.36;61.96
59873;BME280;50750;51.636;4.948;2023-01-27T02:32:36;102698.02;;;8.36;62.03
59873;BME280;50750;51.636;4.948;2023-01-27T02:35:02;102693.14;;;8.36;62.00
59873;BME280;50750;51.636;4.948;2023-01-27T02:37:30;102694.55;;;8.36;61.94
59873;BME280;50750;51.636;4.948;2023-01-27T02:39:59;102700.99;;;8.35;61.98
59873;BME280;50750;51.636;4.948;2023-01-27T02:42:26;102696.13;;;8.36;61.94
59873;BME280;50750;51.636;4.948;2023-01-27T02:44:53;102694.71;;;8.35;61.91
59873;BME280;50750;51.636;4.948;2023-01-27T02:47:18;102694.88;;;8.35;61.95
59873;BME280;50750;51.636;4.948;2023-01-27T02:49:44;102694.52;;;8.35;61.93
59873;BME280;50750;51.636;4.948;2023-01-27T02:52:10;102696.45;;;8.35;61.99
59873;BME280;50750;51.636;4.948;2023-01-27T02:54:36;102697.33;;;8.34;61.87
59873;BME280;50750;51.636;4.948;2023-01-27T02:57:02;102698.89;;;8.34;61.92
59873;BME280;50750;51.636;4.948;2023-01-27T02:59:28;102696.27;;;8.33;61.99
59873;BME280;50750;51.636;4.948;2023-01-27T03:01:54;102698.02;;;8.34;62.01
59873;BME280;50750;51.636;4.948;2023-01-27T03:04:20;102702.38;;;8.33;62.01
59873;BME280;50750;51.636;4.948;2023-01-27T03:06:45;102702.73;;;8.34;62.01
59873;BME280;50750;51.636;4.948;2023-01-27T03:09:11;102707.08;;;8.33;61.91
59873;BME280;50750;51.636;4.948;2023-01-27T03:11:37;102707.78;;;8.32;62.12
59873;BME280;50750;51.636;4.948;2023-01-27T03:14:22;102707.25;;;8.32;62.02
59873;BME280;50750;51.636;4.948;2023-01-27T03:17:06;102714.41;;;8.32;62.09
59873;BME280;50750;51.636;4.948;2023-01-27T03:19:51;102723.65;;;8.31;62.02
59873;BME280;50750;51.636;4.948;2023-01-27T03:22:17;102722.95;;;8.31;62.09
59873;BME280;50750;51.636;4.948;2023-01-27T03:24:44;102726.10;;;8.32;62.05
59873;BME280;50750;51.636;4.948;2023-01-27T03:27:10;102727.69;;;8.34;62.11
59873;BME280;50750;51.636;4.948;2023-01-27T03:29:36;102728.73;;;8.34;62.01
59873;BME280;50750;51.636;4.948;2023-01-27T03:32:21;102728.05;;;8.36;61.96
59873;BME280;50750;51.636;4.948;2023-01-27T03:34:47;102730.69;;;8.36;62.00
59873;BME280;50750;51.636;4.948;2023-01-27T03:37:13;102732.08;;;8.37;61.87
59873;BME280;50750;51.636;4.948;2023-01-27T03:39:57;102738.54;;;8.38;61.84
59873;BME280;50750;51.636;4.948;2023-01-27T03:42:42;102740.48;;;8.39;61.97
59873;BME280;50750;51.636;4.948;2023-01-27T03:45:27;102738.23;;;8.38;61.97
59873;BME280;50750;51.636;4.948;2023-01-27T03:48:12;102739.80;;;8.38;61.86
59873;BME280;50750;51.636;4.948;2023-01-27T03:50:38;102741.71;;;8.38;61.81
59873;BME280;50750;51.636;4.948;2023-01-27T03:53:09;102747.11;;;8.38;61.88
59873;BME280;50750;51.636;4.948;2023-01-27T03:55:36;102750.27;;;8.38;61.94
59873;BME280;50750;51.636;4.948;2023-01-27T03:58:04;102751.63;;;8.38;61.99
59873;BME280;50750;51.636;4.948;2023-01-27T04:00:52;102749.21;;;8.38;61.96
59873;BME280;50750;51.636;4.948;2023-01-27T04:03:20;102751.98;;;8.37;61.87
59873;BME280;50750;51.636;4.948;2023-01-27T04:06:10;102753.20;;;8.37;62.04
59873;BME280;50750;51.636;4.948;2023-01-27T04:08:56;102753.02;;;8.37;61.88
59873;BME280;50750;51.636;4.948;2023-01-27T04:11:22;102757.92;;;8.37;61.89
59873;BME280;50750;51.636;4.948;2023-01-27T04:14:08;102753.38;;;8.37;61.97
59873;BME280;50750;51.636;4.948;2023-01-27T04:16:35;102755.81;;;8.36;61.96
59873;BME280;50750;51.636;4.948;2023-01-27T04:19:06;102754.77;;;8.36;62.07
59873;BME280;50750;51.636;4.948;2023-01-27T04:21:32;102754.23;;;8.35;61.87
59873;BME280;50750;51.636;4.948;2023-01-27T04:23:59;102756.31;;;8.35;62.04
59873;BME280;50750;51.636;4.948;2023-01-27T04:26:25;102760.68;;;8.35;61.91
59873;BME280;50750;51.636;4.948;2023-01-27T04:29:03;102761.73;;;8.34;62.12
59873;BME280;50750;51.636;4.948;2023-01-27T04:31:30;102761.03;;;8.33;62.09
59873;BME280;50750;51.636;4.948;2023-01-27T04:33:57;102766.10;;;8.34;62.08
59873;BME280;50750;51.636;4.948;2023-01-27T04:36:22;102766.26;;;8.33;62.09
59873;BME280;50750;51.636;4.948;2023-01-27T04:38:48;102764.68;;;8.33;62.02
59873;BME280;50750;51.636;4.948;2023-01-27T04:41:14;102772.20;;;8.32;61.99
59873;BME280;50750;51.636;4.948;2023-01-27T04:43:40;102768.70;;;8.33;62.22
59873;BME280;50750;51.636;4.948;2023-01-27T04:46:06;102775.86;;;8.33;62.12
59873;BME280;50750;51.636;4.948;2023-01-27T04:48:32;102778.83;;;8.35;62.19
59873;BME280;50750;51.636;4.948;2023-01-27T04:50:58;102773.60;;;8.35;62.06
59873;BME280;50750;51.636;4.948;2023-01-27T04:53:27;102767.86;;;8.36;61.95
59873;BME280;50750;51.636;4.948;2023-01-27T04:56:00;102772.58;;;8.36;62.00
59873;BME280;50750;51.636;4.948;2023-01-27T04:58:26;102778.69;;;8.37;61.94
59873;BME280;50750;51.636;4.948;2023-01-27T05:00:52;102780.11;;;8.38;61.95
59873;BME280;50750;51.636;4.948;2023-01-27T05:03:18;102782.04;;;8.38;61.91
59873;BME280;50750;51.636;4.948;2023-01-27T05:05:44;102785.38;;;8.39;61.91
59873;BME280;50750;51.636;4.948;2023-01-27T05:08:10;102783.10;;;8.39;61.98
59873;BME280;50750;51.636;4.948;2023-01-27T05:10:36;102785.55;;;8.39;61.95
59873;BME280;50750;51.636;4.948;2023-01-27T05:13:02;102794.44;;;8.39;61.87
59873;BME280;50750;51.636;4.948;2023-01-27T05:15:29;102794.45;;;8.39;61.92
59873;BME280;50750;51.636;4.948;2023-01-27T05:17:55;102792.52;;;8.38;61.95
59873;BME280;50750;51.636;4.948;2023-01-27T05:20:21;102794.60;;;8.38;62.06
59873;BME280;50750;51.636;4.948;2023-01-27T05:22:49;102796.85;;;8.38;61.92
59873;BME280;50750;51.636;4.948;2023-01-27T05:25:15;102794.05;;;8.38;61.95
59873;BME280;50750;51.636;4.948;2023-01-27T05:27:41;102797.20;;;8.38;61.97
59873;BME280;50750;51.636;4.948;2023-01-27T05:30:08;102795.97;;;8.37;61.92
59873;BME280;50750;51.636;4.948;2023-01-27T05:32:33;102793.35;;;8.37;61.91
59873;BME280;50750;51.636;4.948;2023-01-27T05:34:59;102795.61;;;8.37;61.86
59873;BME280;50750;51.636;4.948;2023-01-27T05:37:25;102795.45;;;8.37;61.97
59873;BME280;50750;51.636;4.948;2023-01-27T05:39:51;102795.61;;;8.36;61.85
59873;BME280;50750;51.636;4.948;2023-01-27T05:42:17;102799.80;;;8.36;61.97
59873;BME280;50750;51.636;4.948;2023-01-27T05:44:42;102795.96;;;8.36;62.01
59873;BME280;50750;51.636;4.948;2023-01-27T05:47:08;102803.10;;;8.35;61.88
59873;BME280;50750;51.636;4.948;2023-01-27T05:49:34;102808.15;;;8.35;62.06
59873;BME280;50750;51.636;4.948;2023-01-27T05:52:00;102805.38;;;8.34;61.97
59873;BME280;50750;51.636;4.948;2023-01-27T05:54:26;102804.84;;;8.34;61.98
59873;BME280;50750;51.636;4.948;2023-01-27T05:56:51;102801.17;;;8.34;62.10
59873;BME280;50750;51.636;4.948;2023-01-27T05:59:17;102802.23;;;8.33;62.02
59873;BME280;50750;51.636;4.948;2023-01-27T06:01:43;102811.48;;;8.34;62.08
59873;BME280;50750;51.636;4.948;2023-01-27T06:04:09;102810.77;;;8.34;61.97
59873;BME280;50750;51.636;4.948;2023-01-27T06:06:35;102813.74;;;8.34;61.97
59873;BME280;50750;51.636;4.948;2023-01-27T06:09:01;102816.38;;;8.35;61.85
59873;BME280;50750;51.636;4.948;2023-01-27T06:11:27;102818.48;;;8.36;62.02
59873;BME280;50750;51.636;4.948;2023-01-27T06:13:53;102818.31;;;8.37;61.90
59873;BME280;50750;51.636;4.948;2023-01-27T06:16:20;102818.48;;;8.37;61.84
59873;BME280;50750;51.636;4.948;2023-01-27T06:18:47;102822.55;;;8.39;61.86
59873;BME280;50750;51.636;4.948;2023-01-27T06:21:14;102826.41;;;8.40;61.84
59873;BME280;50750;51.636;4.948;2023-01-27T06:23:40;102828.69;;;8.41;61.82
59873;BME280;50750;51.636;4.948;2023-01-27T06:26:09;102831.66;;;8.41;61.88
59873;BME280;50750;51.636;4.948;2023-01-27T06:28:35;102831.85;;;8.42;61.94
59873;BME280;50750;51.636;4.948;2023-01-27T06:31:06;102839.17;;;8.42;61.78
59873;BME280;50750;51.636;4.948;2023-01-27T06:33:32;102839.88;;;8.42;61.75
59873;BME280;50750;51.636;4.948;2023-01-27T06:36:04;102843.71;;;8.42;61.72
59873;BME280;50750;51.636;4.948;2023-01-27T06:38:31;102845.46;;;8.42;61.88
59873;BME280;50750;51.636;4.948;2023-01-27T06:40:57;102843.19;;;8.42;61.66
59873;BME280;50750;51.636;4.948;2023-01-27T06:43:23;102844.07;;;8.42;61.77
59873;BME280;50750;51.636;4.948;2023-01-27T06:45:49;102844.41;;;8.42;61.83
59873;BME280;50750;51.636;4.948;2023-01-27T06:48:15;102846.33;;;8.41;61.77
59873;BME280;50750;51.636;4.948;2023-01-27T06:50:41;102848.42;;;8.41;61.82
59873;BME280;50750;51.636;4.948;2023-01-27T06:53:08;102851.56;;;8.41;61.72
59873;BME280;50750;51.636;4.948;2023-01-27T06:55:35;102850.67;;;8.40;61.83
59873;BME280;50750;51.636;4.948;2023-01-27T06:58:07;102852.59;;;8.40;61.75
59873;BME280;50750;51.636;4.948;2023-01-27T07:00:34;102850.49;;;8.39;61.79
59873;BME280;50750;51.636;4.948;2023-01-27T07:03:01;102850.49;;;8.39;61.81
59873;BME280;50750;51.636;4.948;2023-01-27T07:05:28;102853.27;;;8.39;61.86
59873;BME280;50750;51.636;4.948;2023-01-27T07:07:54;102853.77;;;8.38;61.88
59873;BME280;50750;51.636;4.948;2023-01-27T07:10:20;102853.75;;;8.38;61.95
59873;BME280;50750;51.636;4.948;2023-01-27T07:12:46;102854.80;;;8.37;61.94
59873;BME280;50750;51.636;4.948;2023-01-27T07:15:12;102850.79;;;8.36;61.84
59873;BME280;50750;51.636;4.948;2023-01-27T07:17:38;102855.31;;;8.36;61.73
59873;BME280;50750;51.636;4.948;2023-01-27T07:20:06;102857.06;;;8.35;61.88
59873;BME280;50750;51.636;4.948;2023-01-27T07:22:32;102855.11;;;8.34;61.84
59873;BME280;50750;51.636;4.948;2023-01-27T07:24:58;102857.73;;;8.34;61.83
59873;BME280;50750;51.636;4.948;2023-01-27T07:27:24;102859.65;;;8.34;61.96
59873;BME280;50750;51.636;4.948;2023-01-27T07:29:51;102857.73;;;8.35;61.85
59873;BME280;50750;51.636;4.948;2023-01-27T07:32:17;102858.61;;;8.35;61.92
59873;BME280;50750;51.636;4.948;2023-01-27T07:34:43;102859.15;;;8.36;61.94
59873;BME280;50750;51.636;4.948;2023-01-27T07:37:08;102862.83;;;8.37;61.98
59873;BME280;50750;51.636;4.948;2023-01-27T07:39:37;102861.61;;;8.37;61.75
59873;BME280;50750;51.636;4.948;2023-01-27T07:42:04;102868.44;;;8.38;61.83
59873;BME280;50750;51.636;4.948;2023-01-27T07:44:31;102868.98;;;8.39;61.78
59873;BME280;50750;51.636;4.948;2023-01-27T07:46:58;102871.27;;;8.39;61.87
59873;BME280;50750;51.636;4.948;2023-01-27T07:49:24;102870.22;;;8.40;61.83
59873;BME280;50750;51.636;4.948;2023-01-27T07:51:50;102870.40;;;8.40;61.79
59873;BME280;50750;51.636;4.948;2023-01-27T07:54:16;102874.06;;;8.40;61.74
59873;BME280;50750;51.636;4.948;2023-01-27T07:56:42;102874.23;;;8.40;61.80
59873;BME280;50750;51.636;4.948;2023-01-27T07:59:11;102878.06;;;8.39;61.81
59873;BME280;50750;51.636;4.948;2023-01-27T08:01:37;102877.55;;;8.40;61.74
59873;BME280;50750;51.636;4.948;2023-01-27T08:04:06;102877.38;;;8.39;61.73
59873;BME280;50750;51.636;4.948;2023-01-27T08:06:32;102876.84;;;8.39;61.74
59873;BME280;50750;51.636;4.948;2023-01-27T08:08:57;102874.20;;;8.38;61.82
59873;BME280;50750;51.636;4.948;2023-01-27T08:11:25;102874.54;;;8.38;61.84
59873;BME280;50750;51.636;4.948;2023-01-27T08:13:51;102877.85;;;8.38;61.77
59873;BME280;50750;51.636;4.948;2023-01-27T08:16:17;102872.95;;;8.38;61.85
59873;BME280;50750;51.636;4.948;2023-01-27T08:18:43;102874.17;;;8.38;61.73
59873;BME280;50750;51.636;4.948;2023-01-27T08:21:10;102872.61;;;8.37;61.76
59873;BME280;50750;51.636;4.948;2023-01-27T08:23:37;102871.04;;;8.37;61.92
59873;BME280;50750;51.636;4.948;2023-01-27T08:26:04;102879.77;;;8.37;61.88
59873;BME280;50750;51.636;4.948;2023-01-27T08:28:33;102882.90;;;8.36;61.81
59873;BME280;50750;51.636;4.948;2023-01-27T08:31:07;102884.48;;;8.36;61.81
59873;BME280;50750;51.636;4.948;2023-01-27T08:33:34;102884.28;;;8.36;61.91
59873;BME280;50750;51.636;4.948;2023-01-27T08:36:06;102886.38;;;8.36;61.90
59873;BME280;50750;51.636;4.948;2023-01-27T08:38:33;102884.45;;;8.35;61.90
59873;BME280;50750;51.636;4.948;2023-01-27T08:41:07;102884.09;;;8.35;61.83
59873;BME280;50750;51.636;4.948;2023-01-27T08:43:34;102891.42;;;8.35;61.91
59873;BME280;50750;51.636;4.948;2023-01-27T08:46:00;102896.30;;;8.34;61.86
59873;BME280;50750;51.636;4.948;2023-01-27T08:48:27;102900.68;;;8.34;61.85
59873;BME280;50750;51.636;4.948;2023-01-27T08:50:54;102904.69;;;8.35;61.93
59873;BME280;50750;51.636;4.948;2023-01-27T08:53:21;102906.95;;;8.35;61.99
59873;BME280;50750;51.636;4.948;2023-01-27T08:55:47;102906.09;;;8.35;61.86
59873;BME280;50750;51.636;4.948;2023-01-27T08:58:13;102914.30;;;8.35;61.91
59873;BME280;50750;51.636;4.948;2023-01-27T09:00:39;102918.52;;;8.36;61.94
59873;BME280;50750;51.636;4.948;2023-01-27T09:03:05;102922.36;;;8.37;61.85
59873;BME280;50750;51.636;4.948;2023-01-27T09:05:31;102916.95;;;8.38;61.95
59873;BME280;50750;51.636;4.948;2023-01-27T09:07:57;102924.16;;;8.39;61.82
59873;BME280;50750;51.636;4.948;2023-01-27T09:10:23;102925.91;;;8.40;61.82
59873;BME280;50750;51.636;4.948;2023-01-27T09:12:49;102928.20;;;8.41;61.89
59873;BME280;50750;51.636;4.948;2023-01-27T09:15:15;102931.88;;;8.41;61.76
59873;BME280;50750;51.636;4.948;2023-01-27T09:17:41;102938.34;;;8.42;61.81
59873;BME280;50750;51.636;4.948;2023-01-27T09:20:07;102935.20;;;8.43;61.91
59873;BME280;50750;51.636;4.948;2023-01-27T09:22:34;102933.80;;;8.43;61.69
59873;BME280;50750;51.636;4.948;2023-01-27T09:25:02;102938.69;;;8.43;61.69
59873;BME280;50750;51.636;4.948;2023-01-27T09:27:28;102940.09;;;8.43;61.80
59873;BME280;50750;51.636;4.948;2023-01-27T09:29:54;102942.70;;;8.43;61.85
59873;BME280;50750;51.636;4.948;2023-01-27T09:32:20;102938.86;;;8.43;61.79
59873;BME280;50750;51.636;4.948;2023-01-27T09:34:46;102943.75;;;8.42;61.63
59873;BME280;50750;51.636;4.948;2023-01-27T09:37:12;102946.90;;;8.43;61.76
59873;BME280;50750;51.636;4.948;2023-01-27T09:39:42;102948.48;;;8.43;61.79
59873;BME280;50750;51.636;4.948;2023-01-27T09:42:33;102955.80;;;8.42;61.74
59873;BME280;50750;51.636;4.948;2023-01-27T09:56:20;102960.81;;;8.39;61.84
59873;BME280;50750;51.636;4.948;2023-01-27T09:59:04;102961.52;;;8.39;61.93
59873;BME280;50750;51.636;4.948;2023-01-27T10:12:13;102961.46;;;8.37;61.82
59873;BME280;50750;51.636;4.948;2023-01-27T10:22:49;102958.85;;;8.36;61.85
59873;BME280;50750;51.636;4.948;2023-01-27T10:27:56;102954.48;;;8.36;61.69
59873;BME280;50750;51.636;4.948;2023-01-27T10:30:34;102954.13;;;8.37;61.80
59873;BME280;50750;51.636;4.948;2023-01-27T10:33:15;102953.43;;;8.38;61.76
59873;BME280;50750;51.636;4.948;2023-01-27T10:35:58;102948.60;;;8.39;61.80
59873;BME280;50750;51.636;4.948;2023-01-27T10:44:19;102955.82;;;8.44;61.75
59873;BME280;50750;51.636;4.948;2023-01-27T10:50:02;102957.42;;;8.46;61.78
59873;BME280;50750;51.636;4.948;2023-01-27T10:53:10;102960.23;;;8.47;61.63
59873;BME280;50750;51.636;4.948;2023-01-27T10:55:41;102958.65;;;8.48;61.55
59873;BME280;50750;51.636;4.948;2023-01-27T10:58:19;102956.73;;;8.47;61.72
59873;BME280;50750;51.636;4.948;2023-01-27T11:00:52;102960.05;;;8.48;61.75
59873;BME280;50750;51.636;4.948;2023-01-27T11:03:31;102959.70;;;8.48;61.56
59873;BME280;50750;51.636;4.948;2023-01-27T11:06:03;102962.15;;;8.48;61.73
59873;BME280;50750;51.636;4.948;2023-01-27T11:08:39;102961.27;;;8.48;61.63
59873;BME280;50750;51.636;4.948;2023-01-27T11:11:07;102957.44;;;8.48;61.57
59873;BME280;50750;51.636;4.948;2023-01-27T11:13:59;102961.62;;;8.48;61.52
59873;BME280;50750;51.636;4.948;2023-01-27T11:16:33;102963.55;;;8.48;61.58
59873;BME280;50750;51.636;4.948;2023-01-27T11:19:10;102957.26;;;8.47;61.63
59873;BME280;50750;51.636;4.948;2023-01-27T11:21:39;102954.99;;;8.47;61.62
59873;BME280;50750;51.636;4.948;2023-01-27T11:27:35;102952.55;;;8.47;61.61
59873;BME280;50750;51.636;4.948;2023-01-27T11:30:15;102956.20;;;8.47;61.68
59873;BME280;50750;51.636;4.948;2023-01-27T11:32:59;102951.85;;;8.47;61.63
59873;BME280;50750;51.636;4.948;2023-01-27T11:35:27;102945.18;;;8.46;61.47
59873;BME280;50750;51.636;4.948;2023-01-27T11:37:54;102943.95;;;8.46;61.84
59873;BME280;50750;51.636;4.948;2023-01-27T11:42:48;102943.63;;;8.47;61.82
59873;BME280;50750;51.636;4.948;2023-01-27T11:45:16;102942.39;;;8.46;61.61
59873;BME280;50750;51.636;4.948;2023-01-27T11:47:44;102939.44;;;8.46;61.72
59873;BME280;50750;51.636;4.948;2023-01-27T11:50:17;102938.72;;;8.46;61.69
59873;BME280;50750;51.636;4.948;2023-01-27T11:52:48;102933.48;;;8.46;61.79
59873;BME280;50750;51.636;4.948;2023-01-27T11:55:19;102931.91;;;8.46;61.75
59873;BME280;50750;51.636;4.948;2023-01-27T11:58:11;102931.39;;;8.45;61.68
59873;BME280;50750;51.636;4.948;2023-01-27T12:00:45;102930.69;;;8.45;61.83
59873;BME280;50750;51.636;4.948;2023-01-27T12:03:28;102931.91;;;8.46;61.87
59873;BME280;50750;51.636;4.948;2023-01-27T12:06:00;102930.20;;;8.47;61.87
59873;BME280;50750;51.636;4.948;2023-01-27T12:08:39;102929.69;;;8.49;61.71
59873;BME280;50750;51.636;4.948;2023-01-27T12:11:26;102926.20;;;8.49;61.61
59873;BME280;50750;51.636;4.948;2023-01-27T12:14:03;102928.30;;;8.51;61.75
59873;BME280;50750;51.636;4.948;2023-01-27T12:16:47;102925.70;;;8.51;61.59
59873;BME280;50750;51.636;4.948;2023-01-27T12:19:27;102926.94;;;8.53;61.79
59873;BME280;50750;51.636;4.948;2023-01-27T12:22:00;102924.33;;;8.53;61.57
59873;BME280;50750;51.636;4.948;2023-01-27T12:24:34;102924.16;;;8.54;61.73
59873;BME280;50750;51.636;4.948;2023-01-27T12:27:02;102922.08;;;8.55;61.53
59873;BME280;50750;51.636;4.948;2023-01-27T12:29:39;102923.30;;;8.55;61.59
59873;BME280;50750;51.636;4.948;2023-01-27T12:32:14;102923.30;;;8.55;61.56
59873;BME280;50750;51.636;4.948;2023-01-27T12:34:43;102918.59;;;8.55;61.52
59873;BME280;50750;51.636;4.948;2023-01-27T12:37:21;102916.84;;;8.54;61.63
59873;BME280;50750;51.636;4.948;2023-01-27T12:39:50;102913.36;;;8.55;61.60
59873;BME280;50750;51.636;4.948;2023-01-27T12:45:25;102908.98;;;8.54;61.57
59873;BME280;50750;51.636;4.948;2023-01-27T12:48:14;102907.39;;;8.54;61.53
59873;BME280;50750;51.636;4.948;2023-01-27T12:53:19;102905.29;;;8.52;61.67
59873;BME280;50750;51.636;4.948;2023-01-27T12:55:49;102903.55;;;8.52;61.76
59873;BME280;50750;51.636;4.948;2023-01-27T12:58:43;102901.96;;;8.52;61.59
59873;BME280;50750;51.636;4.948;2023-01-27T13:03:49;102899.14;;;8.50;61.73
59873;BME280;50750;51.636;4.948;2023-01-27T13:06:27;102902.64;;;8.51;61.66
59873;BME280;50750;51.636;4.948;2023-01-27T13:08:54;102901.94;;;8.51;61.70
59873;BME280;50750;51.636;4.948;2023-01-27T13:11:31;102897.05;;;8.50;61.68
59873;BME280;50750;51.636;4.948;2023-01-27T13:13:58;102899.15;;;8.50;61.68
59873;BME280;50750;51.636;4.948;2023-01-27T13:16:28;102898.96;;;8.50;61.75
59873;BME280;50750;51.636;4.948;2023-01-27T13:18:57;102898.10;;;8.49;61.84
59873;BME280;50750;51.636;4.948;2023-01-27T13:21:30;102900.87;;;8.49;61.77
59873;BME280;50750;51.636;4.948;2023-01-27T13:23:58;102902.08;;;8.48;61.83
59873;BME280;50750;51.636;4.948;2023-01-27T13:26:32;102903.48;;;8.48;61.69
59873;BME280;50750;51.636;4.948;2023-01-27T13:31:49;102899.65;;;8.48;61.81
59873;BME280;50750;51.636;4.948;2023-01-27T13:37:12;102900.52;;;8.48;61.88
59873;BME280;50750;51.636;4.948;2023-01-27T13:40:11;102900.34;;;8.48;61.85
59873;BME280;50750;51.636;4.948;2023-01-27T13:45:38;102898.45;;;8.50;61.70
59873;BME280;50750;51.636;4.948;2023-01-27T13:48:09;102897.06;;;8.51;61.87
59873;BME280;50750;51.636;4.948;2023-01-27T13:50:46;102897.08;;;8.52;61.88
59873;BME280;50750;51.636;4.948;2023-01-27T13:53:17;102905.64;;;8.52;61.90
59873;BME280;50750;51.636;4.948;2023-01-27T14:06:55;102908.10;;;8.54;61.79
59873;BME280;50750;51.636;4.948;2023-01-27T14:12:14;102909.67;;;8.54;61.80
59873;BME280;50750;51.636;4.948;2023-01-27T14:28:14;102919.26;;;8.52;61.79
59873;BME280;50750;51.636;4.948;2023-01-27T14:30:50;102918.03;;;8.52;61.79
59873;BME280;50750;51.636;4.948;2023-01-27T14:33:41;102917.84;;;8.51;61.84
59873;BME280;50750;51.636;4.948;2023-01-27T14:36:18;102920.45;;;8.51;61.80
59873;BME280;50750;51.636;4.948;2023-01-27T14:55:16;102929.88;;;8.49;61.79
59873;BME280;50750;51.636;4.948;2023-01-27T14:57:54;102934.59;;;8.50;61.84
59873;BME280;50750;51.636;4.948;2023-01-27T15:00:52;102931.80;;;8.49;61.83
59873;BME280;50750;51.636;4.948;2023-01-27T15:03:55;102933.88;;;8.49;61.90
59873;BME280;50750;51.636;4.948;2023-01-27T15:26:34;102951.41;;;8.55;61.80
59873;BME280;50750;51.636;4.948;2023-01-27T15:29:01;102950.73;;;8.56;61.78